Hauptseite
METAR-TAF:

METAR-TAF

Flughäfen :

Altenburg, Deutschland

Leipzig-Altenburg Airport

Breite: 50-58N, Länge: 012-30E, Höhe: 195 m

Beobachtung

Neuester Wetterbericht von vor 57 Minuten, um 13:50 UTC
Wind 9 kt aus Nord/Nordost
Temperatur 14°C
Luftfeuchtigkeit 72%
Luftdruck 1019 hPa
Sichtweite 10 km oder mehr
Durchbrochene Bewölkung in der Höhe von 4000 ft
Durchbrochene Bewölkung in der Höhe von 8500 ft

METAR: EDAC 201350Z 03009KT 9999 BKN040 BKN085 14/09 Q1019

Zeit: 16:47 (14:47 UTC)

Prognose

Neuester Wetterbericht von vor 3 Stunden und 47 Minuten, um 11:00 UTC
Gültige Prognose vom 20 um 12 UTC bis 20 um 21 UTC
Wind 5 kt aus West
Sichtweite 10 km oder mehr
Durchbrochene Bewölkung in der Höhe von 4500 ft

TAF: EDAC 201100Z 2012/2021 28005KT 9999 BKN045

Wetterbeobachtungen und Prognosen von mehr als 4000 Flughäfen (METAR und TAF Bericht).

Die verfügbaren Stationen werden durch gelbe und rote Markierungen auf der Karte dargestellt.

Führen Sie die Maus auf sie, um den Namen der Station zu sehen.

Darauf klicken, um die Beobachtung von Wetterbeobachtungen und Prognosen zu sehen.

Um die Karte zu ändern : klicken Sie auf den grünen Tasten mit einem schwarzen Kreuz Zum Vergrößern, auf den grünen Button mit einem Gedankenstrich zu verkleinern, oder auf die grünen Pfeile für benachbarte Karten.


METAR-TAF: